Main page
METAR-TAF:

METAR-TAF

Airports :

Nouméa Magenta Airport

Nouméa, New Caledonia

latitude: 22-15-30S, longitude: 166-28-22E, elevation: 3 m

METAR: missing

Time: 03:50 (16:50 UTC)

Forecast

The report was made 5 hours and 50 minutes ago, at 11:00 UTC
Forecast valid from 21 at 12 UTC to 22 at 12 UTC
Wind 7 kt from the East/Northeast
Visibility 10 km or more
Few clouds at a height of 3000 ft
Scattered clouds at a height of 4000 ft
Becoming
from 22 at 06 UTC to 22 at 08 UTC
Wind 2 kt from variable directions

TAF: NWWM 211100Z 2112/2212 06007KT 9999 FEW030 SCT040 BECMG 2206/2208 VRB02KT

Weather observations and forecasts of more than 4000 airports (METAR and TAF reports).

The available stations are represented by yellow and red dots on the map.

Hover mouse over dot to see the name of the station.

Then click to see weather observations and forecasts.

To change the map : click on the green buttons with a black cross to zoom in, on the green button with a dash to zoom out, or on the green arrows for adjacent maps.


METAR-TAF: